Time;durP1;ratioP1;P1;durP2;ratioP2;P2;SDS_P1;SDS_P2;PMS_P1;PMS_P2;Temp;Humidity;BMP_temperature;BMP_pressure;BME280_temperature;BME280_humidity;BME280_pressure;Samples;Min_cycle;Max_cycle;Signal;HPM_P1;HPM_P2
2021/03/28 00:00:55;;;;;;;3.17;1.20;;;7.20;99.90;;;;;;5021754;28;20094;-76
2021/03/28 00:03:27;;;;;;;2.40;1.33;;;7.00;99.90;;;;;;5028190;28;20086;-75
2021/03/28 00:06:05;;;;;;;2.28;1.13;;;6.90;99.90;;;;;;5023514;28;20105;-76
2021/03/28 00:08:31;;;;;;;3.33;2.10;;;6.80;99.90;;;;;;5025046;28;20120;-76
2021/03/28 00:11:21;;;;;;;1.73;1.35;;;6.80;99.90;;;;;;5013821;28;20120;-75
2021/03/28 00:13:53;;;;;;;2.55;1.30;;;6.90;99.90;;;;;;5010059;28;20078;-75
2021/03/28 00:16:22;;;;;;;2.55;1.15;;;6.70;99.90;;;;;;5015139;28;20168;-75
2021/03/28 00:19:04;;;;;;;1.92;1.17;;;6.50;99.90;;;;;;5008639;28;20253;-75
2021/03/28 00:21:51;;;;;;;1.83;0.85;;;6.40;99.90;;;;;;5009136;28;20094;-75
2021/03/28 00:24:33;;;;;;;3.58;1.50;;;6.30;99.90;;;;;;5020543;28;20161;-75
2021/03/28 00:27:21;;;;;;;1.90;1.25;;;6.30;99.90;;;;;;5026341;28;20086;-75
2021/03/28 00:29:50;;;;;;;3.15;1.17;;;6.20;99.90;;;;;;5024003;28;21073;-75
2021/03/28 00:32:19;;;;;;;4.88;1.45;;;6.40;99.90;;;;;;5013809;28;20074;-76
2021/03/28 00:34:50;;;;;;;2.72;1.27;;;6.60;99.90;;;;;;5020915;28;20078;-76
2021/03/28 00:37:22;;;;;;;2.50;1.20;;;6.50;99.90;;;;;;5009969;28;20132;-75
2021/03/28 00:39:57;;;;;;;3.30;1.23;;;6.40;99.90;;;;;;5026890;28;20346;-75
2021/03/28 00:42:39;;;;;;;4.05;1.45;;;6.70;99.90;;;;;;5019570;28;20105;-76
2021/03/28 00:45:18;;;;;;;2.88;1.13;;;6.70;99.90;;;;;;5021275;28;20459;-76
2021/03/28 00:47:56;;;;;;;1.63;1.02;;;6.90;99.90;;;;;;5024075;28;20086;-76
2021/03/28 00:50:21;;;;;;;1.95;1.30;;;7.00;99.90;;;;;;5012268;28;20082;-75
2021/03/28 00:52:57;;;;;;;2.92;1.00;;;6.90;99.90;;;;;;5018559;28;20078;-76
2021/03/28 00:55:27;;;;;;;1.63;0.98;;;6.90;99.90;;;;;;5010567;28;20074;-75
2021/03/28 00:58:21;;;;;;;3.42;1.67;;;7.00;99.90;;;;;;5012369;28;20094;-76
2021/03/28 01:00:58;;;;;;;2.28;1.30;;;6.80;99.90;;;;;;5025050;28;20540;-75
2021/03/28 01:04:07;;;;;;;1.88;1.30;;;6.80;99.90;;;;;;5015507;28;20074;-75
2021/03/28 01:06:50;;;;;;;2.50;0.98;;;6.70;99.90;;;;;;5015028;28;20591;-75
2021/03/28 01:09:39;;;;;;;1.85;0.90;;;6.60;99.90;;;;;;5003660;28;21166;-75
2021/03/28 01:12:48;;;;;;;2.95;1.00;;;6.70;99.90;;;;;;5025383;28;20074;-75
2021/03/28 01:15:23;;;;;;;3.95;0.85;;;6.70;99.90;;;;;;5044722;28;20050;-75
2021/03/28 01:17:59;;;;;;;2.78;1.23;;;6.70;99.90;;;;;;5044076;28;20141;-75
2021/03/28 01:20:45;;;;;;;2.22;1.00;;;6.70;99.90;;;;;;5026263;28;20571;-75
2021/03/28 01:23:32;;;;;;;3.17;1.42;;;6.70;99.90;;;;;;5016129;28;20603;-76
2021/03/28 01:26:23;;;;;;;3.33;1.70;;;6.60;99.90;;;;;;5014597;28;20425;-75
2021/03/28 01:29:11;;;;;;;2.85;1.15;;;6.60;99.90;;;;;;5020292;28;20149;-75
2021/03/28 01:31:56;;;;;;;7.22;1.40;;;6.70;99.90;;;;;;5013806;28;20170;-75
2021/03/28 01:34:41;;;;;;;2.15;1.10;;;6.60;99.90;;;;;;5026142;28;20105;-75
2021/03/28 01:37:15;;;;;;;3.22;1.15;;;6.60;99.90;;;;;;5026424;28;20552;-75
2021/03/28 01:40:06;;;;;;;2.85;0.80;;;6.70;99.90;;;;;;5012805;28;20079;-76
2021/03/28 01:42:53;;;;;;;6.35;1.27;;;6.60;99.90;;;;;;5018416;28;20077;-76
2021/03/28 01:45:42;;;;;;;0.90;0.60;;;6.80;99.90;;;;;;5011639;28;20105;-76
2021/03/28 01:48:24;;;;;;;3.80;1.00;;;6.70;99.90;;;;;;5016527;28;20121;-76
2021/03/28 01:51:15;;;;;;;1.67;0.82;;;6.70;99.90;;;;;;5018807;28;20082;-75
2021/03/28 01:54:11;;;;;;;1.95;1.00;;;6.60;99.90;;;;;;5021927;28;20455;-75
2021/03/28 01:57:01;;;;;;;3.60;1.25;;;6.60;99.90;;;;;;5012113;28;20106;-75
2021/03/28 01:59:40;;;;;;;3.88;0.98;;;6.70;99.90;;;;;;5012231;28;20074;-76
2021/03/28 02:02:32;;;;;;;4.68;1.00;;;6.70;99.90;;;;;;5015172;28;20078;-76
2021/03/28 02:05:21;;;;;;;3.97;1.20;;;6.70;99.90;;;;;;5027663;28;20077;-75
2021/03/28 02:07:55;;;;;;;2.83;1.00;;;6.80;99.90;;;;;;5025467;28;20094;-75
2021/03/28 02:10:30;;;;;;;3.00;1.10;;;6.80;99.90;;;;;;5026876;28;20077;-76
2021/03/28 02:13:10;;;;;;;2.72;1.05;;;6.80;99.90;;;;;;5016551;28;20580;-75
2021/03/28 02:15:35;;;;;;;3.55;1.17;;;6.80;99.90;;;;;;5019892;28;20085;-76
2021/03/28 02:18:35;;;;;;;4.47;1.75;;;6.80;99.90;;;;;;5024364;28;20100;-75
2021/03/28 02:21:26;;;;;;;2.08;1.23;;;6.80;99.90;;;;;;5014285;28;20086;-76
2021/03/28 02:24:08;;;;;;;1.85;1.38;;;6.70;99.90;;;;;;5029169;28;20085;-76
2021/03/28 02:26:46;;;;;;;3.35;1.15;;;6.70;99.90;;;;;;5015799;28;20167;-75
2021/03/28 02:29:20;;;;;;;3.08;1.20;;;6.70;99.90;;;;;;5013740;28;20096;-75
2021/03/28 02:32:27;;;;;;;2.72;1.10;;;6.70;99.90;;;;;;5019036;28;20443;-75
2021/03/28 02:35:34;;;;;;;1.98;1.17;;;6.70;99.90;;;;;;5025712;28;20077;-75
2021/03/28 02:38:09;;;;;;;4.35;1.30;;;6.80;99.90;;;;;;5018542;28;20097;-75
2021/03/28 02:41:02;;;;;;;3.42;1.17;;;6.70;99.90;;;;;;5026168;28;20548;-75
2021/03/28 02:43:33;;;;;;;3.80;1.20;;;6.80;99.90;;;;;;5023221;28;20086;-76
2021/03/28 02:46:24;;;;;;;3.47;1.20;;;6.80;99.90;;;;;;5029116;28;20151;-75
2021/03/28 02:48:58;;;;;;;3.13;1.30;;;6.90;99.90;;;;;;5015909;28;20114;-75
2021/03/28 02:51:51;;;;;;;2.95;1.17;;;6.90;99.90;;;;;;5017925;28;20085;-76
2021/03/28 02:54:49;;;;;;;4.30;1.35;;;6.90;99.90;;;;;;5023979;28;20108;-76
2021/03/28 02:57:40;;;;;;;4.38;1.10;;;6.90;99.90;;;;;;5026056;28;20128;-75
2021/03/28 03:00:27;;;;;;;2.53;1.00;;;6.80;99.90;;;;;;5025717;28;20101;-76
2021/03/28 03:03:06;;;;;;;1.67;1.17;;;6.80;99.90;;;;;;5030098;28;20101;-77
2021/03/28 03:05:40;;;;;;;4.28;1.10;;;6.90;99.90;;;;;;5018727;28;20581;-76
2021/03/28 03:08:34;;;;;;;3.63;1.17;;;6.60;99.90;;;;;;5017471;28;20481;-77
2021/03/28 03:11:29;;;;;;;2.05;1.00;;;6.60;99.90;;;;;;5018967;28;20329;-76
2021/03/28 03:14:11;;;;;;;4.00;1.42;;;6.50;99.90;;;;;;5021809;28;20590;-76
2021/03/28 03:17:02;;;;;;;3.17;1.00;;;6.50;99.90;;;;;;5011070;28;20112;-76
2021/03/28 03:20:13;;;;;;;1.67;1.00;;;6.50;99.90;;;;;;5010775;28;20127;-76
2021/03/28 03:22:56;;;;;;;2.28;1.45;;;6.40;99.90;;;;;;5018962;28;20082;-75
2021/03/28 03:25:53;;;;;;;3.53;1.90;;;6.30;99.90;;;;;;5012841;28;20077;-75
2021/03/28 03:28:37;;;;;;;3.05;1.00;;;6.30;99.90;;;;;;5010863;28;20106;-76
2021/03/28 03:31:08;;;;;;;3.45;1.40;;;6.40;99.90;;;;;;5016467;28;20078;-76
2021/03/28 03:33:56;;;;;;;2.35;1.42;;;6.30;99.90;;;;;;5010659;28;20086;-75
2021/03/28 03:36:40;;;;;;;3.15;1.55;;;6.20;99.90;;;;;;5018390;28;20156;-76
2021/03/28 03:39:49;;;;;;;2.63;0.90;;;6.10;99.90;;;;;;5024049;28;20094;-76
2021/03/28 03:42:39;;;;;;;3.08;0.90;;;6.10;99.90;;;;;;5030976;28;20456;-76
2021/03/28 03:46:00;;;;;;;1.98;0.85;;;6.00;99.90;;;;;;5030396;28;20124;-76
2021/03/28 03:48:35;;;;;;;4.03;0.93;;;6.00;99.90;;;;;;4980605;28;20814;-76
2021/03/28 03:51:22;;;;;;;3.10;1.25;;;6.00;99.90;;;;;;5017102;28;20613;-75
2021/03/28 03:54:02;;;;;;;6.03;1.25;;;6.00;99.90;;;;;;5018581;28;20508;-75
2021/03/28 03:56:35;;;;;;;3.03;0.75;;;5.90;99.90;;;;;;5021991;28;20074;-75
2021/03/28 03:59:13;;;;;;;3.50;1.10;;;5.80;99.90;;;;;;5010108;28;20148;-75
2021/03/28 04:01:56;;;;;;;1.33;0.80;;;5.80;99.90;;;;;;5019113;28;20583;-75
2021/03/28 04:04:22;;;;;;;3.53;1.05;;;5.70;99.90;;;;;;5013472;28;20078;-76
2021/03/28 04:07:25;;;;;;;4.85;1.30;;;5.60;99.90;;;;;;5017644;28;20151;-76
2021/03/28 04:10:28;;;;;;;2.30;1.10;;;5.60;99.90;;;;;;5018068;28;20181;-75
2021/03/28 04:13:22;;;;;;;2.40;0.80;;;5.60;99.90;;;;;;5013393;28;20665;-75
2021/03/28 04:16:31;;;;;;;3.67;1.10;;;5.60;99.90;;;;;;5008659;28;20078;-75
2021/03/28 04:19:26;;;;;;;1.73;0.95;;;5.70;99.90;;;;;;5013751;28;20112;-75
2021/03/28 04:22:02;;;;;;;1.85;0.90;;;5.50;99.90;;;;;;5023403;28;20090;-76
2021/03/28 04:24:53;;;;;;;1.60;0.70;;;5.50;99.90;;;;;;5010578;28;20132;-76
2021/03/28 04:27:37;;;;;;;2.42;0.70;;;5.40;99.90;;;;;;5009238;28;20102;-76
2021/03/28 04:30:04;;;;;;;3.45;1.20;;;5.20;99.90;;;;;;5011469;28;20464;-76
2021/03/28 04:32:55;;;;;;;1.52;0.73;;;5.20;99.90;;;;;;5018220;28;20074;-77
2021/03/28 04:35:48;;;;;;;2.72;0.75;;;5.20;99.90;;;;;;5011301;28;20475;-75
2021/03/28 04:38:45;;;;;;;5.18;1.10;;;5.20;99.90;;;;;;5009874;28;20094;-75
2021/03/28 04:41:20;;;;;;;1.25;0.70;;;5.00;99.90;;;;;;5019611;28;20091;-75
2021/03/28 04:44:01;;;;;;;;;;;4.90;99.90;;;;;;5013564;28;20073;-75
2021/03/28 04:46:46;;;;;;;3.17;1.00;;;4.80;99.90;;;;;;5012255;28;19961;-75
2021/03/28 04:49:33;;;;;;;2.13;0.90;;;4.70;99.90;;;;;;5013631;28;20090;-76
2021/03/28 04:52:17;;;;;;;2.05;0.85;;;4.70;99.90;;;;;;5011126;28;20098;-75
2021/03/28 04:55:16;;;;;;;3.47;1.15;;;4.70;99.90;;;;;;5012157;28;20070;-76
2021/03/28 04:58:00;;;;;;;2.67;1.13;;;4.70;99.90;;;;;;5028943;28;20101;-75
2021/03/28 05:00:37;;;;;;;3.13;0.90;;;4.60;99.90;;;;;;5030730;28;20086;-75
2021/03/28 05:03:18;;;;;;;3.83;0.75;;;4.70;99.90;;;;;;5018131;28;20073;-75
2021/03/28 05:06:14;;;;;;;4.57;0.95;;;4.90;99.90;;;;;;5009587;28;20161;-76
2021/03/28 05:09:15;;;;;;;1.65;1.13;;;4.40;99.90;;;;;;4971981;28;20107;-76
2021/03/28 05:11:58;;;;;;;3.10;1.40;;;4.30;99.90;;;;;;4943742;28;20581;-75
2021/03/28 05:14:45;;;;;;;3.17;1.20;;;4.40;99.90;;;;;;5011495;28;20096;-76
2021/03/28 05:17:22;;;;;;;1.95;1.00;;;4.50;99.90;;;;;;5018147;28;20537;-76
2021/03/28 05:20:18;;;;;;;2.10;0.95;;;4.40;99.90;;;;;;5014441;28;20691;-75
2021/03/28 05:23:11;;;;;;;2.90;1.40;;;4.50;99.90;;;;;;5012423;28;20599;-76
2021/03/28 05:26:02;;;;;;;2.30;1.20;;;4.70;99.90;;;;;;5010717;28;20750;-76
2021/03/28 05:28:53;;;;;;;1.13;0.80;;;4.80;99.90;;;;;;5010218;28;20117;-76
2021/03/28 05:31:40;;;;;;;3.72;1.10;;;4.60;99.90;;;;;;5015843;28;20081;-76
2021/03/28 05:34:47;;;;;;;4.07;1.65;;;4.50;99.90;;;;;;5016629;28;20069;-76
2021/03/28 05:37:52;;;;;;;1.38;0.75;;;4.50;99.90;;;;;;5024540;28;20073;-76
2021/03/28 05:40:26;;;;;;;3.03;0.90;;;4.50;99.90;;;;;;5011730;28;20575;-76
2021/03/28 05:43:07;;;;;;;2.25;0.75;;;4.40;99.90;;;;;;5013168;28;20124;-76
2021/03/28 05:45:54;;;;;;;3.42;0.98;;;4.20;99.90;;;;;;5015763;28;20549;-76
2021/03/28 05:48:43;;;;;;;2.78;1.27;;;4.10;99.90;;;;;;5024991;28;20090;-76
2021/03/28 05:51:21;;;;;;;1.83;0.70;;;4.10;99.90;;;;;;5017177;28;20078;-76
2021/03/28 05:54:14;;;;;;;1.65;0.70;;;4.10;99.90;;;;;;5035802;28;20164;-76
2021/03/28 05:57:02;;;;;;;1.75;0.85;;;4.20;99.90;;;;;;5023849;28;20627;-76
2021/03/28 05:59:56;;;;;;;1.63;0.85;;;4.40;99.90;;;;;;5014917;28;20075;-76
2021/03/28 06:02:58;;;;;;;1.00;0.90;;;4.50;99.90;;;;;;5017143;28;20101;-76
2021/03/28 06:06:11;;;;;;;4.22;0.90;;;4.70;99.90;;;;;;5015208;28;20066;-76
2021/03/28 06:09:03;;;;;;;3.08;0.93;;;4.60;99.90;;;;;;4988896;28;20114;-76
2021/03/28 06:11:57;;;;;;;1.27;0.70;;;4.40;99.90;;;;;;5025297;28;20077;-76
2021/03/28 06:14:43;;;;;;;4.32;1.17;;;4.70;99.90;;;;;;5027276;28;20121;-76
2021/03/28 06:17:15;;;;;;;3.08;1.38;;;4.60;99.90;;;;;;5010377;28;20078;-76
2021/03/28 06:20:14;;;;;;;2.22;0.77;;;4.50;99.90;;;;;;5023812;28;20086;-76
2021/03/28 06:23:07;;;;;;;1.05;0.60;;;4.50;99.90;;;;;;5023556;28;20085;-76
2021/03/28 06:26:02;;;;;;;1.73;1.15;;;4.50;99.90;;;;;;5012205;28;20070;-76
2021/03/28 06:28:49;;;;;;;3.38;1.10;;;4.60;99.90;;;;;;5017314;28;20099;-76
2021/03/28 06:31:38;;;;;;;2.05;1.00;;;4.70;99.90;;;;;;5028231;28;20077;-76
2021/03/28 06:34:19;;;;;;;1.55;0.80;;;4.80;99.90;;;;;;5021777;28;20074;-76
2021/03/28 06:37:02;;;;;;;3.38;1.17;;;5.00;99.90;;;;;;5012062;28;20078;-76
2021/03/28 06:39:56;;;;;;;1.88;0.98;;;5.40;99.90;;;;;;5018540;28;20532;-76
2021/03/28 06:42:27;;;;;;;1.85;0.95;;;5.50;99.90;;;;;;5028289;28;20179;-77
2021/03/28 06:45:14;;;;;;;4.40;1.17;;;5.50;99.90;;;;;;5011007;28;20078;-76
2021/03/28 06:48:17;;;;;;;2.88;1.33;;;5.60;99.90;;;;;;5017813;28;20102;-76
2021/03/28 06:51:05;;;;;;;1.02;0.80;;;5.80;99.90;;;;;;5012458;28;20213;-76
2021/03/28 06:54:12;;;;;;;5.10;2.38;;;5.90;99.90;;;;;;5021024;28;20146;-76
2021/03/28 06:57:15;;;;;;;2.28;1.30;;;6.10;99.90;;;;;;4992590;28;20077;-76
2021/03/28 07:00:08;;;;;;;3.63;0.98;;;6.30;99.90;;;;;;5012488;28;20104;-76
2021/03/28 07:03:11;;;;;;;3.55;0.80;;;6.30;99.90;;;;;;5018593;28;20078;-76
2021/03/28 07:06:18;;;;;;;2.83;0.95;;;6.20;99.90;;;;;;5027270;28;20081;-75
2021/03/28 07:08:44;;;;;;;1.67;1.10;;;6.40;99.90;;;;;;5000752;28;20094;-75
2021/03/28 07:11:24;;;;;;;2.35;1.13;;;6.50;99.90;;;;;;5016546;28;20096;-75
2021/03/28 07:14:17;;;;;;;4.07;1.13;;;6.70;99.90;;;;;;5014138;28;20078;-76
2021/03/28 07:17:07;;;;;;;3.38;1.30;;;6.70;99.90;;;;;;5019000;28;20092;-76
2021/03/28 07:19:45;;;;;;;8.75;1.25;;;6.80;99.90;;;;;;5014858;28;20078;-75
2021/03/28 07:22:44;;;;;;;2.65;1.13;;;6.90;99.90;;;;;;5017836;28;20109;-75
2021/03/28 07:25:48;;;;;;;3.40;1.30;;;7.00;99.90;;;;;;5011197;28;20549;-76
2021/03/28 07:28:26;;;;;;;5.22;1.65;;;7.00;99.90;;;;;;5021051;28;20094;-76
2021/03/28 07:31:18;;;;;;;4.82;1.35;;;7.10;99.90;;;;;;5020709;28;20078;-76
2021/03/28 07:34:20;;;;;;;4.10;1.50;;;7.10;99.90;;;;;;5021075;28;20621;-76
2021/03/28 07:37:34;;;;;;;4.95;1.23;;;7.20;99.90;;;;;;5025864;28;20093;-76
2021/03/28 07:40:26;;;;;;;5.93;1.20;;;7.40;99.90;;;;;;5018645;28;20070;-76
2021/03/28 07:43:33;;;;;;;2.42;1.00;;;7.60;99.90;;;;;;5022062;28;20084;-76
2021/03/28 07:46:25;;;;;;;2.65;1.08;;;7.70;99.90;;;;;;5015972;28;20156;-77
2021/03/28 07:49:13;;;;;;;4.30;1.20;;;7.90;99.90;;;;;;5011964;28;20090;-75
2021/03/28 07:52:21;;;;;;;4.97;1.80;;;7.90;99.90;;;;;;5010759;28;20549;-77
2021/03/28 07:54:49;;;;;;;4.68;1.30;;;8.00;99.90;;;;;;5017756;28;20381;-77
2021/03/28 07:57:24;;;;;;;3.60;1.23;;;8.10;99.90;;;;;;5017095;28;20074;-77
2021/03/28 08:00:20;;;;;;;9.10;2.13;;;8.30;99.90;;;;;;5021976;28;20098;-78
2021/03/28 08:03:10;;;;;;;7.53;2.03;;;8.30;99.90;;;;;;5009611;28;20113;-77
2021/03/28 08:05:58;;;;;;;5.07;1.73;;;8.40;99.90;;;;;;5017623;28;20121;-78
2021/03/28 08:08:51;;;;;;;6.20;2.15;;;8.50;99.90;;;;;;5018517;28;20098;-79
2021/03/28 08:11:29;;;;;;;7.03;2.80;;;8.50;99.20;;;;;;5013486;28;20090;-77
2021/03/28 08:14:25;;;;;;;6.75;1.90;;;8.80;99.70;;;;;;5016457;28;20148;-77
2021/03/28 08:17:15;;;;;;;6.00;1.60;;;8.80;99.80;;;;;;5023388;28;20078;-80
2021/03/28 08:20:20;;;;;;;5.55;1.67;;;9.00;99.90;;;;;;5027653;28;20559;-78
2021/03/28 08:23:04;;;;;;;4.13;1.38;;;9.10;99.90;;;;;;5027917;28;20647;-77
2021/03/28 08:25:48;;;;;;;5.25;2.55;;;9.10;99.30;;;;;;5009255;28;20082;-78
2021/03/28 08:28:42;;;;;;;6.78;1.73;;;9.00;99.70;;;;;;5025659;28;20688;-77
2021/03/28 08:31:26;;;;;;;3.28;1.42;;;9.10;98.60;;;;;;5017466;28;20079;-77
2021/03/28 08:34:30;;;;;;;5.80;1.80;;;9.10;99.10;;;;;;5012311;28;20067;-77
2021/03/28 08:37:33;;;;;;;6.25;2.38;;;9.20;98.70;;;;;;5011434;28;20070;-77
2021/03/28 08:40:05;;;;;;;5.05;2.05;;;9.20;98.10;;;;;;5037394;28;20065;-78
2021/03/28 08:42:53;;;;;;;15.88;2.25;;;9.30;97.90;;;;;;5036306;28;20497;-77
2021/03/28 08:45:27;;;;;;;5.55;1.90;;;9.20;98.80;;;;;;5018607;28;20467;-77
2021/03/28 08:48:14;;;;;;;5.55;1.98;;;9.50;99.40;;;;;;5020509;28;20089;-77
2021/03/28 08:51:19;;;;;;;2.58;1.45;;;9.40;99.10;;;;;;5014788;28;20100;-78
2021/03/28 08:54:08;;;;;;;7.18;1.35;;;9.60;98.00;;;;;;5020297;28;20077;-77
2021/03/28 08:56:45;;;;;;;6.43;1.90;;;9.40;96.40;;;;;;5026979;28;20089;-75
2021/03/28 08:59:19;;;;;;;4.15;1.50;;;9.70;97.50;;;;;;5024435;28;20089;-77
2021/03/28 09:02:00;;;;;;;5.90;1.50;;;9.50;95.70;;;;;;5023493;28;20089;-78
2021/03/28 09:04:37;;;;;;;3.65;1.27;;;9.50;97.00;;;;;;5028110;28;20074;-78
2021/03/28 09:07:24;;;;;;;2.30;1.67;;;9.70;96.30;;;;;;5017489;28;20066;-79
2021/03/28 09:10:00;;;;;;;7.25;1.33;;;9.80;96.30;;;;;;5021579;28;20517;-79
2021/03/28 09:12:53;;;;;;;5.88;1.25;;;9.60;97.10;;;;;;5013064;28;20082;-79
2021/03/28 09:15:44;;;;;;;5.80;1.25;;;9.80;95.30;;;;;;5012413;28;20098;-79
2021/03/28 09:18:39;;;;;;;6.60;1.50;;;9.80;95.50;;;;;;5020854;28;20082;-80
2021/03/28 09:21:30;;;;;;;6.78;1.60;;;9.70;95.20;;;;;;5024546;28;20118;-77
2021/03/28 09:24:20;;;;;;;7.55;2.72;;;9.80;95.90;;;;;;5029951;28;20160;-77
2021/03/28 09:27:24;;;;;;;2.38;1.33;;;9.90;95.80;;;;;;5022191;28;20078;-79
2021/03/28 09:30:21;;;;;;;4.25;1.60;;;9.50;95.30;;;;;;5023094;28;20077;-78
2021/03/28 09:33:14;;;;;;;5.65;1.25;;;9.70;96.70;;;;;;5017475;28;20297;-79
2021/03/28 09:36:27;;;;;;;2.90;1.20;;;9.70;96.30;;;;;;5028399;28;20165;-78
2021/03/28 09:38:58;;;;;;;5.45;1.85;;;9.70;94.90;;;;;;4962407;28;20129;-79
2021/03/28 09:42:07;;;;;;;5.00;1.40;;;9.70;95.50;;;;;;5007540;28;20138;-78
2021/03/28 09:45:15;;;;;;;4.50;1.25;;;9.80;94.60;;;;;;4960987;28;20099;-78
2021/03/28 09:47:46;;;;;;;4.72;1.10;;;9.90;96.30;;;;;;5013937;28;20090;-78
2021/03/28 09:50:53;;;;;;;5.38;1.40;;;9.90;95.80;;;;;;5014435;28;20075;-78
2021/03/28 09:53:24;;;;;;;4.55;1.10;;;10.00;96.00;;;;;;5019375;28;20140;-79
2021/03/28 09:56:36;;;;;;;3.00;0.90;;;9.90;94.80;;;;;;5022579;28;20074;-80
2021/03/28 09:59:36;;;;;;;6.32;1.10;;;9.90;94.30;;;;;;5015043;28;20094;-79
2021/03/28 10:02:16;;;;;;;4.07;1.70;;;9.90;93.50;;;;;;5027829;28;20167;-78
2021/03/28 10:05:00;;;;;;;4.07;0.93;;;10.00;93.60;;;;;;5012341;28;20070;-76
2021/03/28 10:07:34;;;;;;;4.93;1.10;;;10.10;95.00;;;;;;5013346;28;20082;-78
2021/03/28 10:10:24;;;;;;;4.60;1.17;;;10.20;92.90;;;;;;5012313;28;20160;-77
2021/03/28 10:13:01;;;;;;;4.60;0.90;;;10.10;91.50;;;;;;5012723;28;20082;-78
2021/03/28 10:15:28;;;;;;;3.22;1.25;;;9.90;91.30;;;;;;5029201;28;20590;-78
2021/03/28 10:18:38;;;;;;;4.65;1.65;;;10.10;92.80;;;;;;5013699;28;20098;-77
2021/03/28 10:21:29;;;;;;;2.60;1.27;;;10.30;93.00;;;;;;5030378;28;20173;-78
2021/03/28 10:24:25;;;;;;;3.75;0.90;;;10.50;92.70;;;;;;5022038;28;20077;-79
2021/03/28 10:27:29;;;;;;;9.48;1.35;;;10.50;88.60;;;;;;5021276;28;20504;-78
2021/03/28 10:30:25;;;;;;;8.57;1.08;;;10.50;91.60;;;;;;5013730;28;20859;-78
2021/03/28 10:33:19;;;;;;;3.67;1.45;;;10.60;91.30;;;;;;5012371;28;20074;-77
2021/03/28 10:35:57;;;;;;;5.07;1.00;;;10.40;90.20;;;;;;5024145;28;20070;-76
2021/03/28 10:38:38;;;;;;;8.43;2.33;;;10.40;90.80;;;;;;5029199;28;20090;-79
2021/03/28 10:41:15;;;;;;;6.25;1.40;;;10.40;91.90;;;;;;5027161;28;20086;-77
2021/03/28 10:44:22;;;;;;;4.43;1.15;;;10.40;91.70;;;;;;5016241;28;20141;-78
2021/03/28 10:47:32;;;;;;;4.80;1.35;;;10.40;91.10;;;;;;5034044;28;20077;-80
2021/03/28 10:50:01;;;;;;;2.10;0.70;;;10.40;91.40;;;;;;5021427;28;20070;-80
2021/03/28 10:52:43;;;;;;;5.78;0.98;;;10.30;91.30;;;;;;5016649;28;20074;-81
2021/03/28 10:55:39;;;;;;;4.28;1.17;;;10.40;90.70;;;;;;5022416;28;20517;-86
2021/03/28 10:58:23;;;;;;;4.90;1.20;;;10.40;90.20;;;;;;5015124;28;20087;-80
2021/03/28 11:01:16;;;;;;;2.40;0.82;;;10.30;88.90;;;;;;5014874;28;20087;-81
2021/03/28 11:04:20;;;;;;;1.73;0.98;;;10.30;88.30;;;;;;5029849;28;20094;-79
2021/03/28 11:06:48;;;;;;;3.92;1.33;;;10.50;88.80;;;;;;5012362;28;20071;-80
2021/03/28 11:09:48;;;;;;;4.20;1.00;;;10.90;90.90;;;;;;5021709;28;20104;-80
2021/03/28 11:12:37;;;;;;;4.07;1.20;;;10.90;89.40;;;;;;5019939;28;20105;-79
2021/03/28 11:15:31;;;;;;;5.57;0.80;;;10.80;86.50;;;;;;5028006;28;20174;-80
2021/03/28 11:18:21;;;;;;;6.47;1.08;;;10.60;87.20;;;;;;5019415;28;20504;-79
2021/03/28 11:20:58;;;;;;;6.47;1.83;;;10.90;90.20;;;;;;5012133;28;20812;-79
2021/03/28 11:23:57;;;;;;;3.35;1.00;;;11.00;90.30;;;;;;5013161;28;20100;-79
2021/03/28 11:26:53;;;;;;;3.65;1.10;;;11.30;90.60;;;;;;5014696;28;20162;-80
2021/03/28 11:29:38;;;;;;;5.68;1.05;;;11.40;86.00;;;;;;5029978;28;20176;-80
2021/03/28 11:32:34;;;;;;;2.65;0.95;;;11.40;87.10;;;;;;5027753;28;20074;-82
2021/03/28 11:35:09;;;;;;;2.92;1.08;;;11.70;87.40;;;;;;5024193;28;20499;-79
2021/03/28 11:37:49;;;;;;;5.32;1.35;;;11.60;83.90;;;;;;5018465;28;20096;-78
2021/03/28 11:40:18;;;;;;;3.42;1.13;;;11.60;79.60;;;;;;5026048;28;20105;-77
2021/03/28 11:43:11;;;;;;;3.40;1.30;;;11.40;80.40;;;;;;5022232;28;20069;-77
2021/03/28 11:45:43;;;;;;;4.40;1.00;;;11.50;86.90;;;;;;5027552;28;20086;-77
2021/03/28 11:48:26;;;;;;;5.50;1.23;;;11.90;88.70;;;;;;5029034;28;20156;-78
2021/03/28 11:50:55;;;;;;;5.53;1.23;;;11.70;84.30;;;;;;5035089;28;20077;-79
2021/03/28 11:53:23;;;;;;;4.03;1.88;;;12.00;89.10;;;;;;5028174;28;20536;-79
2021/03/28 11:55:58;;;;;;;4.57;1.73;;;12.00;82.70;;;;;;5022731;28;20074;-82
2021/03/28 11:58:39;;;;;;;4.07;1.10;;;11.60;80.10;;;;;;5017708;28;20143;-78
2021/03/28 12:01:05;;;;;;;5.32;1.10;;;11.70;87.00;;;;;;5017750;28;20172;-79
2021/03/28 12:03:33;;;;;;;3.78;1.10;;;11.90;83.10;;;;;;5015543;28;20137;-80
2021/03/28 12:06:09;;;;;;;4.63;1.40;;;11.90;85.70;;;;;;5021556;28;20089;-81
2021/03/28 12:08:53;;;;;;;2.28;0.85;;;11.90;82.50;;;;;;5027620;28;20520;-80
2021/03/28 12:11:37;;;;;;;3.08;1.23;;;11.90;79.80;;;;;;5014403;28;20082;-79
2021/03/28 12:14:18;;;;;;;2.38;1.02;;;11.90;84.70;;;;;;5018772;28;20249;-78
2021/03/28 12:17:02;;;;;;;2.70;0.73;;;12.00;84.80;;;;;;5020401;28;20113;-78
2021/03/28 12:19:37;;;;;;;6.18;1.25;;;11.80;81.10;;;;;;5029721;28;20082;-76
2021/03/28 12:22:09;;;;;;;3.63;1.25;;;11.90;80.40;;;;;;5026627;28;20129;-76
2021/03/28 12:24:35;;;;;;;3.75;1.20;;;11.60;79.60;;;;;;5030789;28;20081;-76
2021/03/28 12:27:04;;;;;;;3.45;1.60;;;12.00;84.70;;;;;;5041738;28;20162;-76
2021/03/28 12:29:30;;;;;;;2.28;0.70;;;11.90;77.90;;;;;;5038022;28;20098;-76
2021/03/28 12:31:56;;;;;;;5.30;1.50;;;11.80;78.40;;;;;;5029889;28;20070;-77
2021/03/28 12:34:25;;;;;;;5.53;1.67;;;12.10;84.60;;;;;;5031662;28;20081;-77
2021/03/28 12:37:24;;;;;;;4.05;1.55;;;12.30;86.10;;;;;;5023501;28;20130;-79
2021/03/28 12:39:50;;;;;;;3.80;1.42;;;12.30;82.00;;;;;;5022017;28;20117;-78
2021/03/28 12:42:15;;;;;;;5.28;1.02;;;12.40;80.40;;;;;;5020986;28;20420;-77
2021/03/28 12:44:43;;;;;;;1.98;0.75;;;12.50;79.70;;;;;;5024274;28;20165;-78
2021/03/28 12:47:28;;;;;;;2.72;0.65;;;12.40;82.80;;;;;;5018947;28;20074;-77
2021/03/28 12:50:21;;;;;;;3.55;1.10;;;12.30;77.60;;;;;;5019636;28;20132;-77
2021/03/28 12:53:11;;;;;;;5.72;1.55;;;12.20;77.80;;;;;;5018789;28;20085;-77
2021/03/28 12:55:48;;;;;;;2.88;0.93;;;12.10;81.30;;;;;;5032536;28;20128;-78
2021/03/28 12:58:18;;;;;;;3.00;0.98;;;12.20;78.60;;;;;;5030079;28;20114;-76
2021/03/28 13:00:56;;;;;;;2.08;0.88;;;12.20;80.00;;;;;;5034227;28;20463;-77
2021/03/28 13:03:31;;;;;;;3.42;1.08;;;12.20;79.00;;;;;;5027450;28;20562;-77
2021/03/28 13:06:02;;;;;;;4.88;1.67;;;12.20;77.40;;;;;;5025601;28;20073;-77
2021/03/28 13:08:30;;;;;;;2.67;1.10;;;12.30;81.10;;;;;;5031003;28;20087;-78
2021/03/28 13:11:03;;;;;;;3.50;1.73;;;12.40;82.50;;;;;;5020619;28;20137;-75
2021/03/28 13:13:36;;;;;;;3.70;1.40;;;12.40;78.10;;;;;;5022873;28;20528;-77
2021/03/28 13:16:03;;;;;;;3.40;1.10;;;12.40;82.90;;;;;;5030637;28;20619;-77
2021/03/28 13:18:40;;;;;;;3.95;1.40;;;12.50;80.10;;;;;;5026221;28;20709;-77
2021/03/28 13:21:27;;;;;;;4.25;1.40;;;12.30;77.50;;;;;;5014007;28;20100;-77
2021/03/28 13:24:15;;;;;;;3.80;1.20;;;12.40;81.10;;;;;;5022829;28;20070;-77
2021/03/28 13:27:02;;;;;;;3.65;1.60;;;12.20;76.30;;;;;;5021856;28;20475;-77
2021/03/28 13:29:37;;;;;;;2.17;0.98;;;12.00;75.40;;;;;;5029980;28;20070;-78
2021/03/28 13:32:27;;;;;;;3.25;1.02;;;12.00;76.30;;;;;;5017199;28;20078;-76
2021/03/28 13:35:29;;;;;;;3.50;1.08;;;12.20;74.70;;;;;;5019154;28;20070;-76
2021/03/28 13:37:56;;;;;;;6.13;1.40;;;12.50;74.80;;;;;;5014937;28;20106;-77
2021/03/28 13:40:44;;;;;;;2.78;0.98;;;12.50;75.60;;;;;;5026636;28;20125;-77
2021/03/28 13:43:28;;;;;;;2.88;1.00;;;12.30;76.50;;;;;;5018244;28;20558;-76
2021/03/28 13:46:10;;;;;;;4.65;1.58;;;12.40;79.80;;;;;;5029905;28;20113;-77
2021/03/28 13:48:36;;;;;;;4.38;1.65;;;12.40;77.20;;;;;;5027329;28;20684;-76
2021/03/28 13:51:13;;;;;;;3.53;1.08;;;12.30;74.80;;;;;;5031339;28;20070;-76
2021/03/28 13:53:49;;;;;;;5.18;1.13;;;12.30;74.80;;;;;;5028725;28;20093;-77
2021/03/28 13:56:42;;;;;;;6.28;1.20;;;12.20;74.90;;;;;;5026673;28;20082;-77
2021/03/28 13:59:34;;;;;;;2.95;1.52;;;12.20;75.10;;;;;;5023504;28;20100;-76
2021/03/28 14:02:21;;;;;;;4.70;1.10;;;12.30;75.90;;;;;;5030472;28;20163;-76
2021/03/28 14:05:06;;;;;;;4.75;1.00;;;12.30;75.50;;;;;;5028441;28;20157;-76
2021/03/28 14:07:40;;;;;;;3.45;1.40;;;12.40;78.70;;;;;;5025341;28;20224;-77
2021/03/28 14:10:06;;;;;;;2.55;1.20;;;12.70;80.80;;;;;;5025463;28;20073;-76
2021/03/28 14:12:54;;;;;;;4.45;1.20;;;12.70;74.70;;;;;;5012649;28;20074;-76
2021/03/28 14:15:29;;;;;;;4.93;1.17;;;12.60;74.30;;;;;;5023113;28;20089;-76
2021/03/28 14:17:59;;;;;;;3.08;1.20;;;12.60;74.00;;;;;;5015221;28;20196;-77
2021/03/28 14:20:46;;;;;;;5.47;1.80;;;12.80;76.10;;;;;;5015698;28;20085;-77
2021/03/28 14:23:15;;;;;;;3.72;1.20;;;12.70;72.10;;;;;;5025729;28;20074;-76
2021/03/28 14:25:57;;;;;;;5.15;1.45;;;12.70;74.00;;;;;;5029208;28;20070;-77
2021/03/28 14:28:25;;;;;;;3.47;1.30;;;12.80;75.30;;;;;;5029392;28;20097;-77